KHEQ

Holyoke Airport

Holyoke, Colorado, USA
METAR KHEQ 271150Z AUTO 18016G21KT 10SM CLR 23/15 A2983 RMK AO2
Observed Flight Rules
May-27 @ 11:50 UTC (16 minutes ago) Visual Flight Rules
Wind Visibility Clouds
180° at 16 knots
 Gusting to 21 knots
10 miles
  • Clear skies
Temperatures Readings
Current 23°C / 73°F
Dewpoint 15°C / 59°F
Humidity 61%
Altimeter 29.83" Hg
Pressure 1010 hPa
Elevation 1137
METAR KHEQ 271150Z AUTO 18016G21KT 10SM CLR 23/15 A2983 RMK AO2
Observed Flight Rules
May-27 @ 11:50 UTC
(16 minutes ago)
VFR
Wind Visibility
180° at 16 knots
 Gusting to 21 knots
10 miles
Clouds
  • Clear skies
Temperature Dewpoint
23°C / 73°F 15°C / 59°F
Humidity Altimeter Pressure
61% 29.83" Hg 1010 hPa